createdAt,value
2022-10-23T00:02:08.405Z,87.02
2022-10-23T00:04:37.643Z,87.08
2022-10-23T00:07:08.803Z,87.03
2022-10-23T00:09:37.815Z,87.10
2022-10-23T00:12:07.949Z,87.11
2022-10-23T00:14:36.970Z,87.21
2022-10-23T00:17:10.991Z,87.17
2022-10-23T00:19:40.343Z,87.09
2022-10-23T00:22:09.159Z,87.21
2022-10-23T00:24:38.073Z,87.27
2022-10-23T00:27:06.988Z,87.13
2022-10-23T00:29:36.955Z,87.12
2022-10-23T00:32:08.179Z,87.05
2022-10-23T00:34:36.868Z,87.19
2022-10-23T00:37:06.056Z,87.31
2022-10-23T00:39:37.205Z,87.10
2022-10-23T00:42:07.270Z,87.13
2022-10-23T00:44:44.783Z,87.06
2022-10-23T00:47:15.078Z,87.07
2022-10-23T00:49:43.685Z,87.16
2022-10-23T00:52:14.290Z,87.24
2022-10-23T00:54:44.350Z,87.24
2022-10-23T00:57:16.468Z,87.26
2022-10-23T00:59:45.511Z,87.41
2022-10-23T01:02:16.455Z,87.42
2022-10-23T01:04:45.406Z,87.36
2022-10-23T01:07:28.983Z,87.45
2022-10-23T01:10:03.301Z,87.44
2022-10-23T01:12:47.224Z,87.50
2022-10-23T01:15:26.852Z,87.55
2022-10-23T01:17:58.005Z,87.73
2022-10-23T01:20:42.179Z,87.70
2022-10-23T01:23:24.154Z,87.72
2022-10-23T01:26:19.890Z,87.86
2022-10-23T01:29:11.782Z,87.87
2022-10-23T01:31:49.892Z,87.95
2022-10-23T01:34:33.034Z,88.14
2022-10-23T01:37:05.497Z,88.27
2022-10-23T01:39:41.943Z,88.43
2022-10-23T01:42:16.030Z,88.60
2022-10-23T01:44:50.226Z,88.44
2022-10-23T01:47:25.763Z,88.65
2022-10-23T01:50:17.255Z,88.61
2022-10-23T01:52:48.229Z,88.76
2022-10-23T01:55:18.513Z,88.76
2022-10-23T01:57:49.091Z,88.85
2022-10-23T02:00:20.281Z,88.69
2022-10-23T02:02:56.251Z,88.82
2022-10-23T02:05:31.544Z,88.99
2022-10-23T02:08:01.588Z,89.10
2022-10-23T02:11:02.100Z,89.28
2022-10-23T02:13:47.823Z,89.27
2022-10-23T02:17:12.010Z,89.25
2022-10-23T02:20:03.003Z,89.16
2022-10-23T02:22:43.738Z,89.07
2022-10-23T02:25:23.557Z,89.14
2022-10-23T02:27:56.702Z,89.15
2022-10-23T02:30:30.534Z,89.18
2022-10-23T02:33:11.436Z,89.10
2022-10-23T02:35:40.756Z,89.12
2022-10-23T02:38:31.005Z,89.10
2022-10-23T02:41:44.458Z,89.08
2022-10-23T02:44:41.005Z,89.08
2022-10-23T02:47:27.941Z,89.11
2022-10-23T02:50:10.497Z,89.18
2022-10-23T02:52:56.008Z,89.24
2022-10-23T02:55:34.556Z,89.44
2022-10-23T02:58:10.800Z,89.56
2022-10-23T03:00:51.181Z,89.53
2022-10-23T03:03:28.001Z,89.52
2022-10-23T03:05:58.771Z,89.46
2022-10-23T03:08:27.536Z,89.52
2022-10-23T03:10:56.705Z,89.52
2022-10-23T03:13:27.027Z,89.60
2022-10-23T03:15:58.180Z,89.62
2022-10-23T03:18:32.620Z,89.61
2022-10-23T03:21:03.289Z,89.76
2022-10-23T03:23:36.853Z,89.66
2022-10-23T03:26:06.764Z,89.81
2022-10-23T03:28:40.765Z,89.93
2022-10-23T03:31:10.161Z,90.03
2022-10-23T03:33:40.864Z,89.92
2022-10-23T03:36:11.845Z,89.73
2022-10-23T03:38:42.064Z,89.77
2022-10-23T03:41:12.227Z,89.64
2022-10-23T03:43:41.223Z,89.91
2022-10-23T03:46:13.382Z,89.75
2022-10-23T03:48:42.815Z,89.88
2022-10-23T03:51:11.912Z,89.84
2022-10-23T03:53:42.651Z,89.86
2022-10-23T03:56:11.861Z,89.93
2022-10-23T03:58:41.659Z,89.97
2022-10-23T04:01:10.300Z,90.09
2022-10-23T04:03:39.416Z,89.92
2022-10-23T04:06:09.100Z,89.97
2022-10-23T04:08:38.972Z,90.05
2022-10-23T04:11:15.101Z,90.08
2022-10-23T04:13:47.344Z,90.15
2022-10-23T04:16:17.724Z,90.32
2022-10-23T04:18:47.382Z,90.20
2022-10-23T04:21:16.126Z,90.14
2022-10-23T04:23:45.821Z,90.23
2022-10-23T04:26:18.448Z,90.31
2022-10-23T04:28:47.649Z,90.30
2022-10-23T04:31:18.753Z,90.28
2022-10-23T04:33:49.605Z,90.26
2022-10-23T04:36:48.292Z,90.37
2022-10-23T04:39:19.391Z,90.48
2022-10-23T04:41:52.008Z,90.46
2022-10-23T04:44:24.279Z,90.62
2022-10-23T04:46:53.741Z,90.77
2022-10-23T04:49:25.284Z,90.66
2022-10-23T04:52:19.672Z,90.69
2022-10-23T04:55:11.747Z,90.87
2022-10-23T04:57:47.637Z,90.90
2022-10-23T05:00:18.948Z,91.07
2022-10-23T05:02:54.677Z,91.06
2022-10-23T05:05:23.883Z,91.06
2022-10-23T05:08:14.226Z,91.19
2022-10-23T05:11:13.858Z,91.18
2022-10-23T05:13:47.257Z,91.14
2022-10-23T05:16:47.321Z,91.20
2022-10-23T05:19:24.294Z,91.31
2022-10-23T05:21:56.482Z,91.37
2022-10-23T05:24:39.318Z,91.50
2022-10-23T05:27:08.318Z,91.50
2022-10-23T05:29:40.701Z,91.73
2022-10-23T05:32:12.862Z,91.56
2022-10-23T05:34:43.669Z,91.46
2022-10-23T05:37:16.326Z,91.55
2022-10-23T05:39:47.288Z,91.50
2022-10-23T05:42:18.433Z,91.47
2022-10-23T05:44:48.211Z,91.62
2022-10-23T05:47:26.016Z,91.60
2022-10-23T05:50:18.533Z,91.75
2022-10-23T05:52:49.054Z,91.68
2022-10-23T05:55:39.483Z,91.90
2022-10-23T05:58:38.873Z,91.80
2022-10-23T06:01:18.828Z,91.89
2022-10-23T06:04:08.010Z,91.87
2022-10-23T06:06:57.457Z,91.88
2022-10-23T06:09:27.187Z,91.95
2022-10-23T06:12:03.420Z,91.86
2022-10-23T06:14:33.760Z,91.82
2022-10-23T06:17:04.134Z,91.95
2022-10-23T06:19:40.322Z,91.86
2022-10-23T06:22:16.178Z,91.86
2022-10-23T06:24:54.871Z,91.84
2022-10-23T06:27:27.519Z,91.90
2022-10-23T06:29:57.112Z,91.91
2022-10-23T06:32:27.175Z,91.82
2022-10-23T06:35:08.460Z,91.70
2022-10-23T06:37:37.810Z,91.59
2022-10-23T06:40:34.519Z,91.79
2022-10-23T06:43:13.299Z,91.75
2022-10-23T06:46:05.204Z,91.63
2022-10-23T06:48:54.769Z,91.67
2022-10-23T06:51:30.285Z,91.74
2022-10-23T06:54:02.321Z,91.85
2022-10-23T06:57:07.848Z,91.72
2022-10-23T06:59:43.177Z,91.67
2022-10-23T07:02:12.515Z,91.39
2022-10-23T07:04:42.300Z,91.49
2022-10-23T07:07:16.247Z,91.29
2022-10-23T07:09:50.798Z,91.03
2022-10-23T07:12:28.445Z,90.78
2022-10-23T07:15:27.417Z,90.85
2022-10-23T07:17:58.986Z,90.86
2022-10-23T07:20:30.899Z,90.57
2022-10-23T07:22:59.703Z,90.56
2022-10-23T07:25:34.354Z,90.80
2022-10-23T07:28:05.151Z,90.74
2022-10-23T07:30:33.889Z,90.70
2022-10-23T07:33:03.183Z,90.52
2022-10-23T07:35:41.314Z,90.37
2022-10-23T07:38:16.631Z,90.24
2022-10-23T07:40:48.683Z,90.02
2022-10-23T07:43:21.201Z,90.22
2022-10-23T07:45:51.456Z,90.12
2022-10-23T07:48:27.946Z,89.88
2022-10-23T07:51:10.970Z,89.96
2022-10-23T07:53:51.756Z,89.92
2022-10-23T07:56:47.356Z,89.80
2022-10-23T07:59:17.008Z,89.59
2022-10-23T08:01:55.081Z,89.55
2022-10-23T08:04:26.701Z,89.25
2022-10-23T08:07:01.506Z,89.19
2022-10-23T08:09:34.861Z,89.07
2022-10-23T08:12:07.043Z,89.23
2022-10-23T08:14:38.222Z,89.17
2022-10-23T08:17:10.222Z,89.03
2022-10-23T08:20:00.933Z,88.77
2022-10-23T08:22:35.926Z,88.46
2022-10-23T08:25:06.698Z,88.53
2022-10-23T08:27:36.938Z,88.41
2022-10-23T08:30:08.679Z,88.14
2022-10-23T08:32:39.444Z,88.05
2022-10-23T08:35:08.863Z,87.90
2022-10-23T08:37:38.293Z,87.67
2022-10-23T08:40:25.807Z,87.32
2022-10-23T08:43:40.625Z,87.06
2022-10-23T08:46:40.417Z,86.93
2022-10-23T08:49:50.982Z,86.44
2022-10-23T08:52:32.393Z,86.56
2022-10-23T08:55:19.294Z,86.52
2022-10-23T08:58:20.348Z,86.38
2022-10-23T09:00:51.161Z,86.49
2022-10-23T09:03:21.966Z,86.55
2022-10-23T09:06:17.557Z,86.45
2022-10-23T09:09:09.215Z,86.27
2022-10-23T09:12:36.851Z,86.11
2022-10-23T09:15:35.238Z,85.81
2022-10-23T09:18:15.725Z,85.50
2022-10-23T09:20:50.533Z,85.23
2022-10-23T09:23:23.473Z,84.86
2022-10-23T09:25:57.278Z,84.71
2022-10-23T09:28:32.659Z,84.54
2022-10-23T09:31:12.553Z,84.07
2022-10-23T09:33:54.465Z,84.38
2022-10-23T09:36:26.657Z,84.30
2022-10-23T09:39:02.566Z,83.98
2022-10-23T09:41:40.384Z,83.74
2022-10-23T09:44:10.906Z,83.36
2022-10-23T09:46:46.932Z,83.35
2022-10-23T09:49:23.700Z,83.16
2022-10-23T09:52:02.035Z,82.58
2022-10-23T09:54:50.938Z,82.54
2022-10-23T09:57:23.170Z,82.75
2022-10-23T09:59:57.337Z,82.53
2022-10-23T10:02:32.222Z,82.51
2022-10-23T10:05:24.516Z,82.21
2022-10-23T10:08:07.278Z,82.01
2022-10-23T10:10:44.358Z,81.80
2022-10-23T10:13:34.820Z,81.46
2022-10-23T10:16:46.395Z,81.45
2022-10-23T10:19:24.320Z,81.29
2022-10-23T10:22:29.390Z,81.35
2022-10-23T10:25:15.678Z,81.13
2022-10-23T10:28:09.666Z,81.30
2022-10-23T10:31:01.848Z,81.21
2022-10-23T10:34:33.383Z,80.93
2022-10-23T10:37:49.366Z,80.89
2022-10-23T10:40:32.075Z,80.74
2022-10-23T10:43:36.911Z,80.89
2022-10-23T10:46:30.478Z,80.37
2022-10-23T10:49:09.665Z,79.93
2022-10-23T10:51:49.483Z,79.77
2022-10-23T10:54:30.257Z,79.64
2022-10-23T10:57:05.840Z,79.41
2022-10-23T10:59:44.526Z,79.12
2022-10-23T11:02:21.698Z,79.14
2022-10-23T11:05:14.857Z,79.07
2022-10-23T11:07:56.462Z,78.90
2022-10-23T11:10:25.364Z,78.79
2022-10-23T11:12:54.975Z,79.04
2022-10-23T11:15:41.017Z,79.11
2022-10-23T11:18:25.007Z,78.74
2022-10-23T11:21:13.471Z,78.56
2022-10-23T11:23:46.264Z,78.59
2022-10-23T11:26:53.567Z,78.21
2022-10-23T11:29:34.063Z,78.15
2022-10-23T11:32:21.569Z,77.97
2022-10-23T11:34:56.614Z,77.78
2022-10-23T11:37:27.347Z,77.47
2022-10-23T11:40:09.820Z,77.52
2022-10-23T11:42:44.259Z,77.22
2022-10-23T11:45:35.524Z,77.22
2022-10-23T11:48:21.207Z,77.04
2022-10-23T11:50:58.172Z,76.72
2022-10-23T11:53:33.687Z,76.68
2022-10-23T11:56:14.996Z,76.68
2022-10-23T11:58:57.289Z,76.55
2022-10-23T12:01:42.090Z,76.31
2022-10-23T12:04:15.436Z,76.18
2022-10-23T12:07:37.822Z,75.96
2022-10-23T12:10:20.011Z,75.59
2022-10-23T12:13:04.007Z,75.63
2022-10-23T12:15:36.775Z,75.76
2022-10-23T12:18:27.884Z,75.46
2022-10-23T12:21:05.418Z,75.12
2022-10-23T12:23:47.372Z,74.71
2022-10-23T12:26:20.290Z,74.46
2022-10-23T12:29:16.054Z,74.40
2022-10-23T12:32:14.628Z,74.21
2022-10-23T12:35:35.201Z,74.12
2022-10-23T12:38:16.316Z,73.86
2022-10-23T12:41:17.311Z,73.40
2022-10-23T12:44:00.127Z,73.34
2022-10-23T12:46:34.924Z,73.17
2022-10-23T12:49:16.629Z,72.59
2022-10-23T12:51:54.311Z,72.46
2022-10-23T12:54:25.004Z,72.41
2022-10-23T12:56:55.510Z,72.39
2022-10-23T12:59:39.566Z,72.42
2022-10-23T13:02:35.742Z,72.22
2022-10-23T13:05:13.829Z,71.95
2022-10-23T13:07:51.132Z,71.73
2022-10-23T13:10:26.600Z,71.53
2022-10-23T13:13:07.561Z,71.63
2022-10-23T13:15:46.302Z,71.75
2022-10-23T13:18:18.534Z,71.54
2022-10-23T13:20:55.114Z,71.58
2022-10-23T13:23:50.748Z,71.34
2022-10-23T13:26:31.432Z,71.52
2022-10-23T13:29:07.340Z,71.62
2022-10-23T13:31:45.340Z,71.48
2022-10-23T13:34:25.136Z,71.44
2022-10-23T13:37:27.094Z,71.38
2022-10-23T13:40:20.813Z,71.24
2022-10-23T13:42:50.832Z,70.98
2022-10-23T13:45:22.862Z,71.04
2022-10-23T13:47:52.436Z,71.22
2022-10-23T13:50:21.740Z,70.98
2022-10-23T13:52:53.114Z,71.12
2022-10-23T13:55:27.345Z,71.04
2022-10-23T13:57:57.834Z,70.94
2022-10-23T14:00:27.739Z,70.83
2022-10-23T14:02:56.728Z,70.78
2022-10-23T14:05:26.461Z,70.92
2022-10-23T14:07:56.677Z,70.87
2022-10-23T14:10:28.184Z,70.84
2022-10-23T14:12:58.245Z,70.80
2022-10-23T14:15:28.646Z,70.79
2022-10-23T14:18:04.625Z,70.70
2022-10-23T14:20:39.043Z,70.77
2022-10-23T14:23:08.513Z,70.76
2022-10-23T14:25:38.831Z,70.56
2022-10-23T14:28:07.885Z,70.60
2022-10-23T14:30:37.966Z,70.44
2022-10-23T14:33:07.575Z,70.53
2022-10-23T14:35:42.729Z,70.38
2022-10-23T14:38:13.003Z,70.36
2022-10-23T14:40:42.319Z,70.30
2022-10-23T14:43:11.978Z,70.28
2022-10-23T14:45:41.704Z,70.43
2022-10-23T14:48:11.932Z,70.52
2022-10-23T14:50:46.115Z,70.41
2022-10-23T14:53:16.535Z,70.22
2022-10-23T14:55:45.430Z,70.22
2022-10-23T14:58:15.818Z,70.29
2022-10-23T15:00:45.461Z,70.29
2022-10-23T15:03:16.047Z,70.14
2022-10-23T15:05:47.024Z,70.29
2022-10-23T15:08:16.735Z,70.36
2022-10-23T15:10:47.058Z,70.41
2022-10-23T15:13:17.261Z,70.43
2022-10-23T15:15:46.500Z,70.40
2022-10-23T15:18:20.087Z,70.54
2022-10-23T15:20:55.170Z,70.43
2022-10-23T15:23:25.508Z,70.37
2022-10-23T15:25:59.595Z,70.46
2022-10-23T15:28:30.152Z,70.42
2022-10-23T15:31:07.111Z,70.48
2022-10-23T15:33:44.141Z,70.57
2022-10-23T15:36:15.311Z,70.64
2022-10-23T15:38:46.411Z,70.82
2022-10-23T15:41:18.425Z,70.81
2022-10-23T15:43:47.631Z,70.85
2022-10-23T15:46:16.265Z,70.88
2022-10-23T15:48:44.309Z,70.78
2022-10-23T15:51:12.355Z,70.98
2022-10-23T15:53:43.688Z,71.03
2022-10-23T15:56:14.174Z,71.03
2022-10-23T15:58:43.578Z,70.98
2022-10-23T16:01:13.932Z,71.03
2022-10-23T16:03:43.495Z,71.16
2022-10-23T16:06:15.392Z,71.28
2022-10-23T16:08:47.692Z,71.46
2022-10-23T16:11:20.539Z,71.46
2022-10-23T16:13:50.539Z,71.60
2022-10-23T16:16:20.231Z,71.50
2022-10-23T16:18:50.530Z,71.88
2022-10-23T16:21:27.297Z,71.92
2022-10-23T16:24:00.333Z,72.10
2022-10-23T16:26:32.354Z,72.01
2022-10-23T16:29:06.897Z,72.23
2022-10-23T16:31:36.521Z,72.21
2022-10-23T16:34:07.103Z,72.44
2022-10-23T16:36:42.472Z,72.59
2022-10-23T16:39:32.150Z,72.75
2022-10-23T16:42:37.303Z,72.77
2022-10-23T16:45:25.047Z,72.81
2022-10-23T16:47:53.960Z,72.72
2022-10-23T16:50:23.963Z,72.76
2022-10-23T16:52:55.793Z,72.73
2022-10-23T16:55:25.743Z,72.88
2022-10-23T16:57:55.624Z,73.13
2022-10-23T17:00:24.852Z,73.20
2022-10-23T17:02:57.171Z,73.24
2022-10-23T17:05:30.196Z,73.46
2022-10-23T17:07:59.198Z,73.71
2022-10-23T17:10:30.349Z,73.61
2022-10-23T17:13:03.366Z,73.69
2022-10-23T17:15:35.857Z,73.72
2022-10-23T17:18:07.848Z,73.92
2022-10-23T17:20:38.541Z,74.06
2022-10-23T17:23:09.198Z,74.10
2022-10-23T17:25:41.591Z,74.06
2022-10-23T17:28:14.311Z,74.11
2022-10-23T17:30:45.948Z,74.23
2022-10-23T17:33:17.001Z,74.63
2022-10-23T17:35:49.130Z,74.74
2022-10-23T17:38:19.445Z,74.88
2022-10-23T17:40:53.846Z,75.03
2022-10-23T17:43:23.325Z,75.23
2022-10-23T17:45:52.327Z,75.29
2022-10-23T17:48:23.913Z,75.50
2022-10-23T17:51:05.301Z,75.50
2022-10-23T17:53:37.419Z,75.76
2022-10-23T17:56:09.385Z,75.76
2022-10-23T17:58:41.777Z,75.81
2022-10-23T18:01:15.390Z,76.18
2022-10-23T18:03:48.844Z,76.28
2022-10-23T18:06:32.768Z,76.25
2022-10-23T18:09:06.869Z,76.29
2022-10-23T18:11:45.415Z,76.27
2022-10-23T18:14:20.818Z,76.46
2022-10-23T18:16:56.337Z,76.59
2022-10-23T18:19:33.344Z,76.74
2022-10-23T18:22:04.168Z,76.68
2022-10-23T18:24:37.995Z,76.69
2022-10-23T18:27:08.588Z,76.96
2022-10-23T18:29:38.678Z,76.90
2022-10-23T18:32:12.701Z,76.99
2022-10-23T18:34:42.094Z,77.02
2022-10-23T18:37:12.770Z,77.03
2022-10-23T18:39:42.258Z,77.17
2022-10-23T18:42:13.578Z,77.24
2022-10-23T18:44:50.270Z,77.42
2022-10-23T18:47:19.390Z,77.52
2022-10-23T18:49:49.902Z,77.61
2022-10-23T18:52:22.044Z,77.78
2022-10-23T18:54:51.491Z,77.72
2022-10-23T18:57:22.557Z,77.94
2022-10-23T18:59:59.649Z,78.09
2022-10-23T19:02:30.994Z,78.18
2022-10-23T19:05:02.349Z,78.15
2022-10-23T19:07:33.790Z,78.33
2022-10-23T19:10:04.182Z,78.36
2022-10-23T19:12:34.750Z,78.39
2022-10-23T19:15:10.564Z,78.43
2022-10-23T19:17:41.387Z,78.40
2022-10-23T19:20:16.396Z,78.60
2022-10-23T19:22:49.655Z,78.69
2022-10-23T19:25:45.774Z,78.82
2022-10-23T19:28:14.939Z,78.80
2022-10-23T19:30:44.413Z,78.70
2022-10-23T19:33:13.961Z,78.74
2022-10-23T19:35:45.636Z,78.95
2022-10-23T19:38:17.143Z,78.86
2022-10-23T19:40:49.115Z,79.04
2022-10-23T19:43:17.808Z,79.07
2022-10-23T19:45:46.901Z,79.15
2022-10-23T19:48:17.258Z,79.40
2022-10-23T19:50:46.705Z,79.39
2022-10-23T19:53:19.700Z,79.44
2022-10-23T19:55:54.251Z,79.31
2022-10-23T19:58:29.480Z,79.27
2022-10-23T20:00:57.958Z,79.27
2022-10-23T20:03:29.771Z,79.36
2022-10-23T20:06:01.332Z,79.30
2022-10-23T20:08:34.951Z,79.37
2022-10-23T20:11:12.856Z,79.33
2022-10-23T20:13:42.512Z,79.22
2022-10-23T20:16:22.991Z,79.14
2022-10-23T20:18:54.690Z,79.18
2022-10-23T20:21:27.073Z,79.36
2022-10-23T20:24:00.788Z,79.29
2022-10-23T20:26:33.667Z,79.20
2022-10-23T20:29:05.184Z,79.22
2022-10-23T20:31:37.028Z,79.19
2022-10-23T20:34:08.945Z,79.32
2022-10-23T20:36:46.375Z,79.23
2022-10-23T20:39:30.112Z,79.15
2022-10-23T20:42:01.648Z,79.33
2022-10-23T20:44:32.619Z,79.07
2022-10-23T20:47:01.815Z,79.05
2022-10-23T20:49:33.652Z,79.04
2022-10-23T20:52:04.577Z,79.01
2022-10-23T20:54:37.432Z,79.11
2022-10-23T20:57:09.673Z,79.11
2022-10-23T20:59:42.743Z,79.11
2022-10-23T21:02:13.267Z,79.07
2022-10-23T21:04:46.361Z,79.16
2022-10-23T21:07:19.321Z,79.23
2022-10-23T21:09:52.038Z,79.29
2022-10-23T21:12:19.988Z,79.35
2022-10-23T21:14:55.157Z,79.25
2022-10-23T21:17:24.118Z,79.32
2022-10-23T21:19:52.973Z,79.39
2022-10-23T21:22:21.540Z,79.35
2022-10-23T21:24:53.854Z,79.28
2022-10-23T21:27:24.130Z,79.31
2022-10-23T21:29:54.057Z,79.19
2022-10-23T21:32:24.165Z,79.22
2022-10-23T21:34:57.599Z,79.10
2022-10-23T21:37:27.164Z,79.15
2022-10-23T21:40:00.211Z,79.09
2022-10-23T21:42:31.400Z,79.08
2022-10-23T21:45:00.468Z,79.03
2022-10-23T21:47:31.320Z,79.16
2022-10-23T21:50:01.970Z,79.00
2022-10-23T21:52:31.419Z,79.05
2022-10-23T21:55:03.559Z,79.07
2022-10-23T21:57:35.624Z,79.09
2022-10-23T22:00:07.323Z,78.98
2022-10-23T22:02:45.098Z,79.24
2022-10-23T22:05:18.517Z,79.19
2022-10-23T22:07:48.791Z,79.10
2022-10-23T22:10:18.532Z,78.94
2022-10-23T22:12:47.666Z,78.97
2022-10-23T22:15:21.599Z,78.84
2022-10-23T22:17:54.004Z,78.92
2022-10-23T22:20:24.620Z,78.79
2022-10-23T22:22:57.227Z,78.81
2022-10-23T22:25:26.955Z,78.75
2022-10-23T22:27:56.610Z,78.71
2022-10-23T22:30:27.240Z,78.76
2022-10-23T22:32:58.926Z,78.69
2022-10-23T22:35:30.779Z,78.62
2022-10-23T22:38:00.625Z,78.76
2022-10-23T22:40:28.473Z,78.59
2022-10-23T22:42:59.547Z,78.60
2022-10-23T22:45:29.055Z,78.48
2022-10-23T22:47:59.908Z,78.47
2022-10-23T22:50:28.332Z,78.28
2022-10-23T22:52:59.794Z,78.22
2022-10-23T22:55:30.054Z,78.12
2022-10-23T22:57:57.784Z,78.05
2022-10-23T23:00:26.256Z,78.10
2022-10-23T23:02:55.577Z,77.88
2022-10-23T23:05:25.736Z,77.71
2022-10-23T23:07:54.664Z,77.54
2022-10-23T23:10:23.426Z,77.58
2022-10-23T23:12:56.127Z,77.58
2022-10-23T23:15:25.776Z,77.38
2022-10-23T23:17:59.308Z,77.44
2022-10-23T23:20:29.976Z,77.42
2022-10-23T23:22:57.815Z,77.15
2022-10-23T23:25:26.263Z,77.38
2022-10-23T23:27:54.547Z,77.42
2022-10-23T23:30:23.280Z,77.44
2022-10-23T23:32:52.734Z,77.28
2022-10-23T23:35:20.972Z,77.33
2022-10-23T23:37:48.733Z,77.50
2022-10-23T23:40:17.046Z,77.41
2022-10-23T23:42:47.172Z,77.30
2022-10-23T23:45:15.396Z,77.34
2022-10-23T23:47:51.481Z,77.32
2022-10-23T23:50:28.314Z,77.42
2022-10-23T23:52:57.164Z,77.16
2022-10-23T23:55:26.225Z,77.16
2022-10-23T23:57:55.470Z,77.21
